Time;durP1;ratioP1;P1;durP2;ratioP2;P2;SDS_P1;SDS_P2;PMS_P1;PMS_P2;Temp;Humidity;BMP_temperature;BMP_pressure;BME280_temperature;BME280_humidity;BME280_pressure;Samples;Min_cycle;Max_cycle;Signal;HPM_P1;HPM_P2
2021/09/09 00:01:32;;;;;;;8.27;6.45;;;;;;;;;;5081112;28;20205;-47
2021/09/09 00:03:59;;;;;;;8.15;6.50;;;;;;;;;;5079688;28;20634;-47
2021/09/09 00:06:26;;;;;;;6.80;6.07;;;;;;;;;;5094628;28;20178;-47
2021/09/09 00:08:52;;;;;;;7.57;6.70;;;;;;;;;;5094380;28;20178;-47
2021/09/09 00:11:18;;;;;;;7.68;6.53;;;;;;;;;;5094635;28;20327;-46
2021/09/09 00:13:44;;;;;;;6.97;6.18;;;;;;;;;;5094297;28;20201;-47
2021/09/09 00:16:10;;;;;;;8.25;6.88;;;;;;;;;;5083244;28;20206;-47
2021/09/09 00:18:36;;;;;;;7.53;6.15;;;;;;;;;;5073928;28;20167;-46
2021/09/09 00:21:02;;;;;;;7.22;5.97;;;;;;;;;;5089954;28;20177;-47
2021/09/09 00:23:28;;;;;;;6.85;6.18;;;;;;;;;;5094339;28;20178;-47
2021/09/09 00:25:54;;;;;;;6.30;5.70;;;;;;;;;;5094350;28;20188;-47
2021/09/09 00:28:20;;;;;;;7.22;6.20;;;;;;;;;;5093549;28;20453;-47
2021/09/09 00:30:46;;;;;;;8.05;5.60;;;;;;;;;;5087509;28;20187;-48
2021/09/09 00:33:12;;;;;;;8.43;6.35;;;;;;;;;;5075526;28;20178;-47
2021/09/09 00:35:39;;;;;;;8.93;6.07;;;;;;;;;;5079805;28;20227;-46
2021/09/09 00:38:05;;;;;;;7.70;5.82;;;;;;;;;;5093742;28;20189;-46
2021/09/09 00:40:31;;;;;;;7.13;6.03;;;;;;;;;;5089122;28;20174;-46
2021/09/09 00:42:57;;;;;;;7.57;5.47;;;;;;;;;;5076944;28;20643;-47
2021/09/09 00:45:23;;;;;;;9.52;6.38;;;;;;;;;;5077886;28;20258;-47
2021/09/09 00:47:49;;;;;;;8.77;6.35;;;;;;;;;;5078013;28;20216;-47
2021/09/09 00:50:15;;;;;;;10.25;5.95;;;;;;;;;;5095589;28;20521;-47
2021/09/09 00:52:45;;;;;;;6.70;5.82;;;;;;;;;;5095107;28;20258;-47
2021/09/09 00:55:11;;;;;;;6.80;6.10;;;;;;;;;;5096965;28;20162;-47
2021/09/09 00:57:37;;;;;;;8.55;6.55;;;;;;;;;;5097773;28;20185;-47
2021/09/09 01:00:04;;;;;;;9.68;6.53;;;;;;;;;;5098092;28;20162;-46
2021/09/09 01:02:30;;;;;;;6.90;6.20;;;;;;;;;;5098040;28;20202;-47
2021/09/09 01:04:56;;;;;;;7.05;6.20;;;;;;;;;;5098009;28;20260;-46
2021/09/09 01:07:22;;;;;;;6.63;5.70;;;;;;;;;;5085638;28;20208;-46
2021/09/09 01:09:48;;;;;;;7.32;6.35;;;;;;;;;;5098293;28;20166;-46
2021/09/09 01:12:14;;;;;;;7.63;5.97;;;;;;;;;;5081957;28;20186;-46
2021/09/09 01:14:40;;;;;;;6.63;5.93;;;;;;;;;;5091654;28;20181;-47
2021/09/09 01:17:07;;;;;;;9.32;6.00;;;;;;;;;;5097690;28;20613;-47
2021/09/09 01:19:33;;;;;;;6.72;5.55;;;;;;;;;;5097949;28;20441;-46
2021/09/09 01:21:59;;;;;;;6.55;5.70;;;;;;;;;;5084985;28;20178;-47
2021/09/09 01:24:25;;;;;;;6.35;5.75;;;;;;;;;;5097386;28;20323;-47
2021/09/09 01:27:02;;;;;;;7.03;5.72;;;;;;;;;;5097426;28;20178;-46
2021/09/09 01:29:30;;;;;;;5.93;5.32;;;;;;;;;;5097815;28;20174;-47
2021/09/09 01:31:57;;;;;;;6.18;5.57;;;;;;;;;;5080947;28;20274;-46
2021/09/09 01:34:23;;;;;;;7.57;6.10;;;;;;;;;;5078589;28;20236;-47
2021/09/09 01:36:50;;;;;;;8.00;5.40;;;;;;;;;;5081119;28;20511;-46
2021/09/09 01:39:16;;;;;;;7.35;6.35;;;;;;;;;;5095990;28;20292;-46
2021/09/09 01:41:42;;;;;;;7.13;5.78;;;;;;;;;;5090278;28;20202;-47
2021/09/09 01:44:08;;;;;;;6.57;5.63;;;;;;;;;;5097596;28;20333;-47
2021/09/09 01:46:34;;;;;;;7.55;6.05;;;;;;;;;;5096927;28;20201;-46
2021/09/09 01:49:01;;;;;;;6.45;5.60;;;;;;;;;;5096746;28;20178;-47
2021/09/09 01:51:27;;;;;;;6.78;6.00;;;;;;;;;;5097111;28;20200;-46
2021/09/09 01:53:54;;;;;;;7.15;5.63;;;;;;;;;;5097133;28;20170;-46
2021/09/09 01:56:20;;;;;;;8.30;5.85;;;;;;;;;;5094959;28;20209;-46
2021/09/09 01:58:46;;;;;;;6.72;6.00;;;;;;;;;;5089248;28;20813;-47
2021/09/09 02:01:12;;;;;;;6.18;5.43;;;;;;;;;;5087935;28;20229;-47
2021/09/09 02:03:38;;;;;;;7.55;5.38;;;;;;;;;;5097082;28;20245;-47
2021/09/09 02:06:04;;;;;;;5.80;5.30;;;;;;;;;;5096226;28;20206;-46
2021/09/09 02:08:30;;;;;;;6.85;5.75;;;;;;;;;;5096210;28;20224;-47
2021/09/09 02:10:56;;;;;;;5.72;5.20;;;;;;;;;;5096604;28;20260;-47
2021/09/09 02:13:22;;;;;;;6.78;5.40;;;;;;;;;;5096886;28;20260;-46
2021/09/09 02:15:48;;;;;;;6.95;5.70;;;;;;;;;;5096387;28;20204;-47
2021/09/09 02:18:14;;;;;;;6.10;5.50;;;;;;;;;;5076298;28;20175;-46
2021/09/09 02:20:40;;;;;;;6.35;5.47;;;;;;;;;;5082845;28;20173;-46
2021/09/09 02:23:06;;;;;;;5.88;5.28;;;;;;;;;;5096271;28;20557;-46
2021/09/09 02:25:32;;;;;;;7.13;5.60;;;;;;;;;;5096589;28;20192;-46
2021/09/09 02:27:58;;;;;;;6.30;5.25;;;;;;;;;;5095520;28;20542;-46
2021/09/09 02:30:26;;;;;;;6.32;5.50;;;;;;;;;;5094884;28;20188;-46
2021/09/09 02:32:52;;;;;;;6.32;5.72;;;;;;;;;;5096703;28;20253;-46
2021/09/09 02:35:18;;;;;;;6.20;5.53;;;;;;;;;;5095617;28;20182;-46
2021/09/09 02:37:44;;;;;;;7.68;5.50;;;;;;;;;;5095289;28;20200;-46
2021/09/09 02:40:12;;;;;;;6.10;5.50;;;;;;;;;;5093950;28;20209;-46
2021/09/09 02:42:38;;;;;;;6.45;5.85;;;;;;;;;;5076108;28;20228;-46
2021/09/09 02:45:04;;;;;;;7.40;5.18;;;;;;;;;;5083573;28;20178;-46
2021/09/09 02:47:30;;;;;;;6.30;5.70;;;;;;;;;;5075712;28;20263;-46
2021/09/09 02:49:56;;;;;;;6.75;5.95;;;;;;;;;;5075806;28;20182;-46
2021/09/09 02:52:22;;;;;;;6.32;5.50;;;;;;;;;;5092870;28;20215;-46
2021/09/09 02:54:48;;;;;;;5.38;4.93;;;;;;;;;;5094008;28;20450;-46
2021/09/09 02:57:14;;;;;;;6.07;5.45;;;;;;;;;;5095464;28;20251;-46
2021/09/09 02:59:40;;;;;;;5.82;5.30;;;;;;;;;;5095005;28;20173;-46
2021/09/09 03:02:06;;;;;;;6.07;5.55;;;;;;;;;;5076542;28;20462;-46
2021/09/09 03:04:32;;;;;;;6.18;5.50;;;;;;;;;;5081283;28;20192;-46
2021/09/09 03:06:58;;;;;;;6.05;5.25;;;;;;;;;;5077424;28;20182;-46
2021/09/09 03:09:24;;;;;;;5.80;5.18;;;;;;;;;;5075756;28;20175;-46
2021/09/09 03:11:50;;;;;;;6.20;5.35;;;;;;;;;;5091395;28;20189;-46
2021/09/09 03:14:17;;;;;;;5.88;5.22;;;;;;;;;;5095279;28;20177;-46
2021/09/09 03:16:43;;;;;;;6.18;5.57;;;;;;;;;;5095995;28;20243;-46
2021/09/09 03:19:10;;;;;;;5.35;4.78;;;;;;;;;;5094469;28;20583;-46
2021/09/09 03:21:36;;;;;;;5.38;4.88;;;;;;;;;;5094969;28;20208;-46
2021/09/09 03:24:02;;;;;;;5.45;4.95;;;;;;;;;;5075496;28;20216;-46
2021/09/09 03:26:28;;;;;;;5.28;4.70;;;;;;;;;;5075367;28;20190;-46
2021/09/09 03:28:54;;;;;;;6.18;5.57;;;;;;;;;;5074897;28;20178;-46
2021/09/09 03:31:20;;;;;;;5.53;5.03;;;;;;;;;;5086441;28;20254;-46
2021/09/09 03:33:46;;;;;;;5.38;4.88;;;;;;;;;;5095245;28;20174;-46
2021/09/09 03:36:12;;;;;;;6.35;4.90;;;;;;;;;;5088325;28;20601;-46
2021/09/09 03:38:38;;;;;;;8.07;5.47;;;;;;;;;;5094498;28;20206;-46
2021/09/09 03:41:04;;;;;;;6.63;5.57;;;;;;;;;;5094556;28;20178;-47
2021/09/09 03:43:30;;;;;;;5.60;5.00;;;;;;;;;;5095092;28;20234;-46
2021/09/09 03:45:56;;;;;;;7.53;5.32;;;;;;;;;;5086391;28;20561;-46
2021/09/09 03:48:22;;;;;;;7.03;5.28;;;;;;;;;;5074400;28;20180;-46
2021/09/09 03:50:48;;;;;;;6.50;5.00;;;;;;;;;;5088205;28;20181;-47
2021/09/09 03:53:14;;;;;;;7.00;5.68;;;;;;;;;;5095237;28;20178;-46
2021/09/09 03:55:40;;;;;;;6.35;5.45;;;;;;;;;;5094926;28;20581;-46
2021/09/09 03:58:06;;;;;;;6.32;5.15;;;;;;;;;;5094455;28;20435;-46
2021/09/09 04:00:32;;;;;;;6.25;5.20;;;;;;;;;;5089904;28;20177;-46
2021/09/09 04:02:59;;;;;;;5.55;4.70;;;;;;;;;;5074562;28;20269;-46
2021/09/09 04:05:25;;;;;;;5.57;4.95;;;;;;;;;;5075039;28;20180;-46
2021/09/09 04:07:51;;;;;;;5.60;5.10;;;;;;;;;;5090334;28;20299;-46
2021/09/09 04:10:17;;;;;;;6.25;5.03;;;;;;;;;;5094246;28;20185;-46
2021/09/09 04:12:43;;;;;;;5.38;4.88;;;;;;;;;;5089853;28;20178;-46
2021/09/09 04:15:10;;;;;;;5.38;4.85;;;;;;;;;;5092264;28;20184;-46
2021/09/09 04:17:36;;;;;;;5.65;4.80;;;;;;;;;;5092187;28;20272;-46
2021/09/09 04:20:02;;;;;;;5.78;4.97;;;;;;;;;;5075062;28;20171;-46
2021/09/09 04:22:28;;;;;;;7.72;5.05;;;;;;;;;;5094814;28;20162;-46
2021/09/09 04:24:54;;;;;;;6.45;4.82;;;;;;;;;;5094297;28;20166;-49
2021/09/09 04:27:22;;;;;;;9.70;5.18;;;;;;;;;;5087353;28;20579;-47
2021/09/09 04:29:49;;;;;;;10.43;6.63;;;;;;;;;;5093747;28;20181;-47
2021/09/09 04:32:15;;;;;;;8.77;6.00;;;;;;;;;;5092602;28;20205;-47
2021/09/09 04:34:41;;;;;;;10.20;5.80;;;;;;;;;;5093137;28;20947;-47
2021/09/09 04:37:07;;;;;;;15.18;6.32;;;;;;;;;;5091930;28;20201;-47
2021/09/09 04:39:33;;;;;;;8.65;5.70;;;;;;;;;;5092864;28;20651;-47
2021/09/09 04:41:59;;;;;;;8.45;5.93;;;;;;;;;;5075381;28;20166;-47
2021/09/09 04:44:25;;;;;;;9.35;5.63;;;;;;;;;;5072757;28;20514;-47
2021/09/09 04:46:51;;;;;;;7.32;5.45;;;;;;;;;;5087191;28;20487;-47
2021/09/09 04:49:17;;;;;;;7.05;5.25;;;;;;;;;;5094094;28;20218;-47
2021/09/09 04:51:44;;;;;;;7.07;5.78;;;;;;;;;;5091727;28;20194;-47
2021/09/09 04:54:10;;;;;;;7.93;5.57;;;;;;;;;;5074479;28;20170;-47
2021/09/09 04:56:36;;;;;;;6.35;5.13;;;;;;;;;;5087990;28;20304;-47
2021/09/09 04:59:02;;;;;;;7.60;5.03;;;;;;;;;;5093924;28;20261;-47
2021/09/09 05:01:28;;;;;;;7.20;4.93;;;;;;;;;;5081502;28;20269;-47
2021/09/09 05:03:54;;;;;;;6.53;5.30;;;;;;;;;;5074220;28;20181;-47
2021/09/09 05:06:20;;;;;;;7.85;5.43;;;;;;;;;;5074115;28;20167;-47
2021/09/09 05:08:46;;;;;;;6.47;5.30;;;;;;;;;;5073658;28;20183;-47
2021/09/09 05:11:12;;;;;;;6.85;5.55;;;;;;;;;;5074068;28;20171;-47
2021/09/09 05:13:39;;;;;;;9.38;5.00;;;;;;;;;;5078523;28;20204;-47
2021/09/09 05:16:06;;;;;;;7.35;4.95;;;;;;;;;;5090924;28;20212;-47
2021/09/09 05:18:32;;;;;;;5.93;5.07;;;;;;;;;;5093529;28;20169;-47
2021/09/09 05:20:58;;;;;;;6.72;4.95;;;;;;;;;;5094338;28;20166;-47
2021/09/09 05:23:24;;;;;;;5.20;4.70;;;;;;;;;;5092990;28;20197;-47
2021/09/09 05:25:50;;;;;;;5.93;5.00;;;;;;;;;;5074159;28;20174;-47
2021/09/09 05:28:16;;;;;;;9.50;5.05;;;;;;;;;;5073434;28;20224;-47
2021/09/09 05:30:42;;;;;;;6.03;4.82;;;;;;;;;;5076080;28;20198;-47
2021/09/09 05:33:08;;;;;;;10.23;5.35;;;;;;;;;;5077586;28;20167;-47
2021/09/09 05:35:34;;;;;;;7.32;5.15;;;;;;;;;;5096448;28;20548;-47
2021/09/09 05:38:00;;;;;;;7.05;5.28;;;;;;;;;;5097078;28;20188;-47
2021/09/09 05:40:26;;;;;;;10.63;5.40;;;;;;;;;;5091348;28;20174;-47
2021/09/09 05:42:52;;;;;;;6.22;5.40;;;;;;;;;;5095209;28;20221;-47
2021/09/09 05:45:19;;;;;;;5.80;4.90;;;;;;;;;;5097503;28;20180;-47
2021/09/09 05:47:45;;;;;;;6.00;5.35;;;;;;;;;;5097094;28;20844;-47
2021/09/09 05:50:12;;;;;;;7.57;5.53;;;;;;;;;;5097586;28;20289;-47
2021/09/09 05:52:38;;;;;;;5.60;4.55;;;;;;;;;;5097461;28;20174;-47
2021/09/09 05:55:04;;;;;;;7.28;5.25;;;;;;;;;;5082219;28;20197;-47
2021/09/09 05:57:30;;;;;;;6.75;4.88;;;;;;;;;;5076299;28;20233;-47
2021/09/09 05:59:56;;;;;;;5.63;4.97;;;;;;;;;;5090938;28;20201;-47
2021/09/09 06:02:27;;;;;;;8.25;5.00;;;;;;;;;;5097284;28;20185;-47
2021/09/09 06:04:55;;;;;;;6.00;5.40;;;;;;;;;;5083593;28;20171;-47
2021/09/09 06:07:21;;;;;;;5.28;4.72;;;;;;;;;;5076618;28;20185;-47
2021/09/09 06:09:47;;;;;;;5.68;4.85;;;;;;;;;;5082535;28;20243;-47
2021/09/09 06:12:13;;;;;;;6.15;5.18;;;;;;;;;;5096699;28;20166;-47
2021/09/09 06:14:39;;;;;;;5.65;4.90;;;;;;;;;;5084781;28;20197;-47
2021/09/09 06:17:06;;;;;;;6.00;5.00;;;;;;;;;;5076325;28;20202;-47
2021/09/09 06:19:33;;;;;;;7.03;5.15;;;;;;;;;;5076705;28;20182;-47
2021/09/09 06:21:59;;;;;;;5.55;4.97;;;;;;;;;;5076751;28;20538;-47
2021/09/09 06:24:25;;;;;;;5.50;5.00;;;;;;;;;;5076563;28;20228;-47
2021/09/09 06:26:51;;;;;;;6.78;5.72;;;;;;;;;;5076458;28;20181;-47
2021/09/09 06:29:17;;;;;;;5.95;5.00;;;;;;;;;;5075920;28;20565;-47
2021/09/09 06:31:43;;;;;;;9.40;5.75;;;;;;;;;;5087586;28;20181;-47
2021/09/09 06:34:09;;;;;;;8.15;5.60;;;;;;;;;;5096603;28;20557;-47
2021/09/09 06:36:35;;;;;;;6.80;6.13;;;;;;;;;;5096626;28;20205;-47
2021/09/09 06:39:02;;;;;;;5.25;4.70;;;;;;;;;;5081146;28;20425;-47
2021/09/09 06:41:28;;;;;;;6.00;4.97;;;;;;;;;;5095466;28;20185;-47
2021/09/09 06:43:54;;;;;;;5.63;5.07;;;;;;;;;;5090794;28;20191;-47
2021/09/09 06:46:20;;;;;;;6.93;5.47;;;;;;;;;;5076340;28;20162;-47
2021/09/09 06:48:46;;;;;;;6.03;5.43;;;;;;;;;;5075735;28;20170;-47
2021/09/09 06:51:12;;;;;;;6.30;4.68;;;;;;;;;;5076056;28;20169;-47
2021/09/09 06:53:38;;;;;;;6.57;5.30;;;;;;;;;;5077159;28;20179;-47
2021/09/09 06:56:04;;;;;;;7.95;5.25;;;;;;;;;;5075877;28;20210;-47
2021/09/09 06:58:30;;;;;;;5.47;4.97;;;;;;;;;;5075495;28;20159;-47
2021/09/09 07:00:56;;;;;;;6.97;5.25;;;;;;;;;;5075904;28;20228;-47
2021/09/09 07:03:24;;;;;;;6.35;5.35;;;;;;;;;;5075631;28;20173;-47
2021/09/09 07:05:50;;;;;;;7.25;5.57;;;;;;;;;;5076389;28;20174;-47
2021/09/09 07:08:16;;;;;;;6.57;5.43;;;;;;;;;;5075136;28;20224;-47
2021/09/09 07:10:42;;;;;;;6.07;5.20;;;;;;;;;;5095830;28;20197;-47
2021/09/09 07:13:08;;;;;;;6.50;5.85;;;;;;;;;;5095763;28;20421;-47
2021/09/09 07:15:34;;;;;;;7.63;6.13;;;;;;;;;;5076077;28;20178;-47
2021/09/09 07:18:00;;;;;;;6.30;5.70;;;;;;;;;;5075002;28;20170;-47
2021/09/09 07:20:26;;;;;;;7.20;5.60;;;;;;;;;;5093292;28;20257;-47
2021/09/09 07:22:52;;;;;;;7.95;5.63;;;;;;;;;;5095480;28;20166;-47
2021/09/09 07:25:18;;;;;;;8.65;5.95;;;;;;;;;;5095281;28;20204;-47
2021/09/09 07:27:44;;;;;;;7.93;5.70;;;;;;;;;;5095124;28;20554;-47
2021/09/09 07:30:10;;;;;;;6.78;5.50;;;;;;;;;;5079455;28;20207;-47
2021/09/09 07:32:37;;;;;;;6.60;5.25;;;;;;;;;;5076302;28;20193;-47
2021/09/09 07:35:04;;;;;;;6.50;5.72;;;;;;;;;;5075213;28;20570;-47
2021/09/09 07:37:30;;;;;;;8.60;6.15;;;;;;;;;;5076674;28;20214;-47
2021/09/09 07:39:56;;;;;;;7.43;5.38;;;;;;;;;;5088382;28;20184;-47
2021/09/09 07:42:22;;;;;;;8.00;5.50;;;;;;;;;;5095222;28;20174;-47
2021/09/09 07:44:49;;;;;;;6.78;5.35;;;;;;;;;;5083643;28;20560;-47
2021/09/09 07:47:15;;;;;;;8.40;5.85;;;;;;;;;;5094920;28;20177;-47
2021/09/09 07:49:41;;;;;;;7.18;5.50;;;;;;;;;;5094908;28;20567;-47
2021/09/09 07:52:07;;;;;;;6.30;5.70;;;;;;;;;;5094803;28;20173;-47
2021/09/09 07:54:33;;;;;;;7.78;5.90;;;;;;;;;;5093278;28;20193;-47
2021/09/09 07:56:59;;;;;;;7.05;5.88;;;;;;;;;;5087498;28;20641;-47
2021/09/09 07:59:26;;;;;;;6.88;5.38;;;;;;;;;;5074949;28;20181;-47
2021/09/09 08:01:52;;;;;;;6.20;5.63;;;;;;;;;;5074841;28;20438;-47
2021/09/09 08:04:18;;;;;;;7.03;5.65;;;;;;;;;;5074575;28;20170;-47
2021/09/09 08:06:44;;;;;;;6.90;5.35;;;;;;;;;;5074370;28;20238;-47
2021/09/09 08:09:10;;;;;;;7.57;5.85;;;;;;;;;;5081580;28;20192;-47
2021/09/09 08:11:37;;;;;;;6.78;5.88;;;;;;;;;;5094489;28;20522;-47
2021/09/09 08:14:03;;;;;;;6.57;5.63;;;;;;;;;;5087751;28;20236;-47
2021/09/09 08:16:29;;;;;;;6.45;5.85;;;;;;;;;;5074415;28;20198;-47
2021/09/09 08:18:55;;;;;;;8.38;5.28;;;;;;;;;;5074172;28;20186;-47
2021/09/09 08:21:21;;;;;;;5.82;5.20;;;;;;;;;;5074382;28;20221;-47
2021/09/09 08:23:47;;;;;;;7.50;5.85;;;;;;;;;;5074582;28;20174;-47
2021/09/09 08:26:13;;;;;;;5.65;5.05;;;;;;;;;;5074425;28;20223;-47
2021/09/09 08:28:39;;;;;;;5.05;4.55;;;;;;;;;;5074431;28;20186;-47
2021/09/09 08:31:06;;;;;;;7.07;5.22;;;;;;;;;;5074362;28;20235;-47
2021/09/09 08:33:32;;;;;;;7.70;5.47;;;;;;;;;;5074438;28;20174;-47
2021/09/09 08:36:03;;;;;;;5.47;4.85;;;;;;;;;;5074145;28;20201;-47
2021/09/09 08:38:28;;;;;;;8.07;5.22;;;;;;;;;;5084810;28;20178;-47
2021/09/09 08:40:54;;;;;;;6.07;5.25;;;;;;;;;;5090692;28;20555;-47
2021/09/09 08:43:20;;;;;;;5.45;4.53;;;;;;;;;;5093397;28;20189;-47
2021/09/09 08:45:47;;;;;;;7.10;5.32;;;;;;;;;;5076045;28;20180;-47
2021/09/09 08:48:15;;;;;;;5.10;4.60;;;;;;;;;;5093592;28;20174;-47
2021/09/09 08:50:41;;;;;;;6.65;5.68;;;;;;;;;;5094387;28;20166;-48
2021/09/09 08:53:09;;;;;;;5.72;5.03;;;;;;;;;;5092678;28;20171;-47
2021/09/09 08:55:35;;;;;;;5.50;5.00;;;;;;;;;;5082028;28;20194;-47
2021/09/09 08:58:02;;;;;;;6.22;4.47;;;;;;;;;;5073869;28;20170;-47
2021/09/09 09:00:28;;;;;;;8.20;5.18;;;;;;;;;;5075193;28;20286;-47
2021/09/09 09:02:58;;;;;;;6.38;4.78;;;;;;;;;;5074048;28;20556;-47
2021/09/09 09:05:25;;;;;;;6.28;4.65;;;;;;;;;;5093759;28;20178;-47
2021/09/09 09:08:01;;;;;;;4.85;4.45;;;;;;;;;;5097780;28;20499;-47
2021/09/09 09:10:28;;;;;;;5.00;4.60;;;;;;;;;;5097948;28;20286;-47
2021/09/09 09:12:54;;;;;;;5.40;4.43;;;;;;;;;;5098224;28;20166;-47
2021/09/09 09:15:22;;;;;;;5.30;4.70;;;;;;;;;;5084328;28;20178;-47
2021/09/09 09:17:55;;;;;;;5.80;5.20;;;;;;;;;;5077237;28;20237;-47
2021/09/09 09:20:21;;;;;;;6.38;5.35;;;;;;;;;;5077696;28;20174;-47
2021/09/09 09:22:48;;;;;;;5.20;4.75;;;;;;;;;;5083681;28;20491;-47
2021/09/09 09:25:14;;;;;;;5.47;4.85;;;;;;;;;;5097775;28;20228;-47
2021/09/09 09:27:46;;;;;;;7.32;5.50;;;;;;;;;;5097559;28;20259;-47
2021/09/09 09:30:13;;;;;;;5.82;5.18;;;;;;;;;;5080953;28;20582;-47
2021/09/09 09:32:52;;;;;;;5.35;4.85;;;;;;;;;;5077506;28;20482;-47
2021/09/09 09:35:19;;;;;;;4.70;4.25;;;;;;;;;;5097588;28;20185;-47
2021/09/09 09:37:51;;;;;;;5.47;4.97;;;;;;;;;;5096961;28;20218;-47
2021/09/09 09:40:23;;;;;;;5.65;4.95;;;;;;;;;;5091087;28;20193;-47
2021/09/09 09:42:49;;;;;;;7.25;5.00;;;;;;;;;;5097533;28;20569;-47
2021/09/09 09:45:16;;;;;;;6.43;4.93;;;;;;;;;;5079278;28;20212;-47
2021/09/09 09:47:42;;;;;;;6.75;4.72;;;;;;;;;;5097210;28;20170;-47
2021/09/09 09:50:18;;;;;;;5.53;4.95;;;;;;;;;;5095538;28;20235;-47
2021/09/09 09:52:45;;;;;;;6.07;4.82;;;;;;;;;;5077130;28;20169;-47
2021/09/09 09:55:11;;;;;;;6.07;4.78;;;;;;;;;;5078185;28;20445;-47
2021/09/09 09:57:55;;;;;;;5.53;5.03;;;;;;;;;;5076493;28;20209;-47
2021/09/09 10:00:22;;;;;;;5.90;5.38;;;;;;;;;;5077036;28;20249;-47
2021/09/09 10:02:49;;;;;;;6.65;5.30;;;;;;;;;;5077136;28;20175;-47
2021/09/09 10:05:15;;;;;;;5.55;4.82;;;;;;;;;;5076908;28;20170;-47
2021/09/09 10:07:41;;;;;;;5.47;4.97;;;;;;;;;;5076133;28;20448;-47
2021/09/09 10:10:07;;;;;;;6.47;4.82;;;;;;;;;;5092368;28;20181;-48
2021/09/09 10:12:34;;;;;;;5.90;5.25;;;;;;;;;;5096973;28;20170;-47
2021/09/09 10:15:01;;;;;;;5.75;5.15;;;;;;;;;;5082045;28;20217;-47
2021/09/09 10:17:27;;;;;;;7.18;4.70;;;;;;;;;;5076090;28;20535;-47
2021/09/09 10:19:53;;;;;;;6.97;5.00;;;;;;;;;;5093072;28;20449;-48
2021/09/09 10:22:21;;;;;;;5.75;4.70;;;;;;;;;;5096744;28;20166;-47
2021/09/09 10:24:51;;;;;;;7.15;5.03;;;;;;;;;;5096588;28;20182;-47
2021/09/09 10:27:18;;;;;;;7.60;5.38;;;;;;;;;;5096443;28;20573;-48
2021/09/09 10:29:48;;;;;;;9.35;5.05;;;;;;;;;;5096538;28;20253;-46
2021/09/09 10:32:29;;;;;;;6.80;5.18;;;;;;;;;;5096778;28;20166;-48
2021/09/09 10:35:18;;;;;;;5.57;4.90;;;;;;;;;;5094585;28;20190;-47
2021/09/09 10:37:51;;;;;;;7.43;4.97;;;;;;;;;;5095821;28;20288;-47
2021/09/09 10:40:29;;;;;;;6.05;5.40;;;;;;;;;;5089871;28;20192;-48
2021/09/09 10:42:56;;;;;;;5.93;5.13;;;;;;;;;;5096220;28;20185;-47
2021/09/09 10:45:34;;;;;;;6.45;5.10;;;;;;;;;;5078295;28;20422;-47
2021/09/09 10:48:05;;;;;;;5.72;5.07;;;;;;;;;;5080696;28;20197;-47
2021/09/09 10:50:31;;;;;;;6.47;5.15;;;;;;;;;;5096384;28;20205;-47
2021/09/09 10:53:07;;;;;;;5.90;4.78;;;;;;;;;;5096439;28;20793;-47
2021/09/09 10:55:35;;;;;;;5.43;4.90;;;;;;;;;;5076416;28;20201;-48
2021/09/09 10:58:20;;;;;;;6.03;5.30;;;;;;;;;;5075520;28;20247;-47
2021/09/09 11:00:52;;;;;;;5.72;4.82;;;;;;;;;;5075789;28;20218;-47
2021/09/09 11:03:37;;;;;;;6.40;4.93;;;;;;;;;;5075961;28;20241;-49
2021/09/09 11:06:09;;;;;;;5.20;4.60;;;;;;;;;;5075642;28;20170;-48
2021/09/09 11:08:36;;;;;;;8.13;4.90;;;;;;;;;;5075091;28;20235;-47
2021/09/09 11:11:03;;;;;;;6.25;5.00;;;;;;;;;;5075668;28;20534;-48
2021/09/09 11:13:32;;;;;;;6.28;5.10;;;;;;;;;;5079708;28;20200;-48
2021/09/09 11:15:58;;;;;;;5.80;4.97;;;;;;;;;;5094712;28;20206;-47
2021/09/09 11:18:28;;;;;;;6.43;5.00;;;;;;;;;;5084358;28;20175;-48
2021/09/09 11:21:20;;;;;;;6.38;4.93;;;;;;;;;;5095765;28;20185;-47
2021/09/09 11:23:48;;;;;;;5.80;4.53;;;;;;;;;;5090504;28;20197;-48
2021/09/09 11:26:21;;;;;;;6.60;4.97;;;;;;;;;;5094895;28;20441;-48
2021/09/09 11:28:50;;;;;;;4.72;4.32;;;;;;;;;;5093829;28;20219;-48
2021/09/09 11:31:23;;;;;;;5.20;4.70;;;;;;;;;;5095556;28;20555;-48
2021/09/09 11:33:52;;;;;;;5.30;4.80;;;;;;;;;;5095257;28;20453;-48
2021/09/09 11:36:19;;;;;;;5.18;4.75;;;;;;;;;;5095401;28;20194;-48
2021/09/09 11:38:46;;;;;;;5.80;4.63;;;;;;;;;;5087497;28;20186;-48
2021/09/09 11:41:16;;;;;;;5.72;5.10;;;;;;;;;;5093572;28;20180;-48
2021/09/09 11:43:47;;;;;;;5.15;4.65;;;;;;;;;;5094532;28;20606;-48
2021/09/09 11:46:13;;;;;;;5.35;4.72;;;;;;;;;;5095497;28;20173;-48
2021/09/09 11:48:39;;;;;;;6.50;5.15;;;;;;;;;;5094320;28;20227;-48
2021/09/09 11:51:05;;;;;;;6.57;4.78;;;;;;;;;;5095239;28;20174;-48
2021/09/09 11:53:31;;;;;;;5.32;4.72;;;;;;;;;;5092733;28;20254;-48
2021/09/09 11:55:57;;;;;;;5.32;4.82;;;;;;;;;;5074499;28;20175;-48
2021/09/09 11:58:33;;;;;;;4.95;4.55;;;;;;;;;;5075115;28;20201;-48
2021/09/09 12:01:00;;;;;;;4.85;4.35;;;;;;;;;;5094974;28;20173;-48
2021/09/09 12:03:26;;;;;;;6.55;5.43;;;;;;;;;;5094774;28;20577;-47
2021/09/09 12:05:53;;;;;;;6.25;4.85;;;;;;;;;;5094940;28;20169;-48
2021/09/09 12:08:19;;;;;;;5.20;4.70;;;;;;;;;;5092348;28;20258;-48
2021/09/09 12:10:46;;;;;;;5.75;4.70;;;;;;;;;;5084062;28;20438;-48
2021/09/09 12:13:11;;;;;;;5.30;4.80;;;;;;;;;;5076106;28;20449;-48
2021/09/09 12:15:37;;;;;;;5.50;4.68;;;;;;;;;;5073442;28;20186;-48
2021/09/09 12:18:08;;;;;;;5.30;4.53;;;;;;;;;;5073984;28;20209;-48
2021/09/09 12:20:34;;;;;;;6.10;4.80;;;;;;;;;;5094293;28;20174;-48
2021/09/09 12:23:01;;;;;;;5.10;4.60;;;;;;;;;;5095252;28;20208;-48
2021/09/09 12:25:27;;;;;;;5.40;4.85;;;;;;;;;;5076034;28;20599;-48
2021/09/09 12:27:54;;;;;;;5.03;4.45;;;;;;;;;;5073901;28;20166;-48
2021/09/09 12:30:23;;;;;;;5.43;4.93;;;;;;;;;;5093247;28;20202;-48
2021/09/09 12:32:49;;;;;;;5.75;5.10;;;;;;;;;;5094767;28;20173;-48
2021/09/09 12:35:17;;;;;;;4.47;4.07;;;;;;;;;;5094184;28;20189;-48
2021/09/09 12:37:43;;;;;;;6.70;4.32;;;;;;;;;;5093423;28;20225;-47
2021/09/09 12:40:10;;;;;;;5.38;4.47;;;;;;;;;;5095598;28;20255;-48
2021/09/09 12:42:39;;;;;;;8.15;4.85;;;;;;;;;;5098750;28;20878;-48
2021/09/09 12:45:08;;;;;;;5.88;4.82;;;;;;;;;;5083061;28;20179;-48
2021/09/09 12:47:34;;;;;;;6.93;4.65;;;;;;;;;;5077948;28;20553;-48
2021/09/09 12:50:20;;;;;;;8.20;4.93;;;;;;;;;;5091282;28;20242;-48
2021/09/09 12:52:53;;;;;;;5.28;4.65;;;;;;;;;;5097611;28;20185;-47
2021/09/09 12:55:19;;;;;;;5.40;4.90;;;;;;;;;;5095853;28;20178;-48
2021/09/09 12:57:45;;;;;;;5.30;4.45;;;;;;;;;;5085206;28;20221;-48
2021/09/09 13:00:12;;;;;;;4.53;4.13;;;;;;;;;;5097692;28;20201;-47
2021/09/09 13:02:38;;;;;;;4.65;4.25;;;;;;;;;;5098106;28;20206;-48
2021/09/09 13:05:04;;;;;;;6.85;4.53;;;;;;;;;;5083449;28;20253;-48
2021/09/09 13:07:32;;;;;;;5.05;4.55;;;;;;;;;;5097345;28;20272;-48
2021/09/09 13:09:58;;;;;;;5.45;4.78;;;;;;;;;;5097441;28;20185;-48
2021/09/09 13:12:24;;;;;;;6.45;4.90;;;;;;;;;;5097621;28;20178;-48
2021/09/09 13:14:50;;;;;;;5.20;4.43;;;;;;;;;;5096966;28;20205;-48
2021/09/09 13:17:16;;;;;;;5.95;4.57;;;;;;;;;;5084453;28;20213;-48
2021/09/09 13:19:42;;;;;;;5.65;4.32;;;;;;;;;;5097828;28;20174;-48
2021/09/09 13:22:08;;;;;;;4.50;4.10;;;;;;;;;;5098073;28;20170;-48
2021/09/09 13:24:33;;;;;;;16.35;4.75;;;;;;;;;;5097088;28;20178;-48
2021/09/09 13:26:59;;;;;;;17.17;5.13;;;;;;;;;;5095492;28;20425;-48
2021/09/09 13:29:29;;;;;;;7.72;4.78;;;;;;;;;;5096950;28;20189;-48
2021/09/09 13:31:55;;;;;;;7.45;4.63;;;;;;;;;;5097005;28;20243;-48
2021/09/09 13:34:21;;;;;;;6.40;4.28;;;;;;;;;;5097582;28;20205;-48
2021/09/09 13:36:47;;;;;;;6.40;4.57;;;;;;;;;;5097575;28;20237;-48
2021/09/09 13:39:13;;;;;;;6.68;4.60;;;;;;;;;;5090223;28;20638;-47
2021/09/09 13:41:39;;;;;;;4.97;4.47;;;;;;;;;;5089112;28;20171;-48
2021/09/09 13:44:06;;;;;;;5.88;4.50;;;;;;;;;;5093781;28;20288;-48
2021/09/09 13:46:33;;;;;;;9.88;4.88;;;;;;;;;;5096407;28;20176;-48
2021/09/09 13:48:59;;;;;;;9.95;4.78;;;;;;;;;;5095546;28;20202;-48
2021/09/09 13:51:25;;;;;;;6.25;4.38;;;;;;;;;;5095773;28;20584;-48
2021/09/09 13:53:51;;;;;;;6.18;4.47;;;;;;;;;;5086638;28;20246;-48
2021/09/09 13:56:17;;;;;;;7.82;4.90;;;;;;;;;;5076680;28;20269;-48
2021/09/09 13:58:43;;;;;;;7.13;4.68;;;;;;;;;;5095073;28;20448;-48
2021/09/09 14:01:11;;;;;;;12.07;4.68;;;;;;;;;;5097216;28;20209;-48
2021/09/09 14:03:37;;;;;;;11.10;4.70;;;;;;;;;;5093774;28;20170;-48
2021/09/09 14:06:03;;;;;;;5.10;4.60;;;;;;;;;;5076773;28;20241;-48
2021/09/09 14:08:29;;;;;;;5.20;4.40;;;;;;;;;;5086532;28;20188;-48
2021/09/09 14:10:55;;;;;;;8.75;4.90;;;;;;;;;;5096686;28;20252;-48
2021/09/09 14:13:21;;;;;;;6.85;4.93;;;;;;;;;;5095902;28;20569;-48
2021/09/09 14:15:47;;;;;;;6.20;4.90;;;;;;;;;;5076738;28;20222;-48
2021/09/09 14:18:13;;;;;;;7.57;5.00;;;;;;;;;;5092189;28;20170;-47
2021/09/09 14:20:40;;;;;;;5.68;5.15;;;;;;;;;;5096349;28;20173;-47
2021/09/09 14:23:07;;;;;;;6.80;5.00;;;;;;;;;;5096962;28;20197;-48
2021/09/09 14:25:33;;;;;;;5.97;4.90;;;;;;;;;;5096055;28;20497;-48
2021/09/09 14:27:59;;;;;;;7.60;4.82;;;;;;;;;;5094027;28;20186;-48
2021/09/09 14:30:25;;;;;;;7.13;4.85;;;;;;;;;;5096343;28;20186;-48
2021/09/09 14:32:51;;;;;;;7.03;4.90;;;;;;;;;;5095495;28;20182;-48
2021/09/09 14:35:17;;;;;;;7.07;5.07;;;;;;;;;;5085076;28;20625;-48
2021/09/09 14:37:44;;;;;;;5.70;5.10;;;;;;;;;;5095802;28;20315;-48
2021/09/09 14:40:10;;;;;;;5.90;4.63;;;;;;;;;;5086797;28;20174;-49
2021/09/09 14:42:36;;;;;;;5.30;4.80;;;;;;;;;;5075349;28;20201;-48